Time;durP1;ratioP1;P1;durP2;ratioP2;P2;SDS_P1;SDS_P2;PMS_P1;PMS_P2;Temp;Humidity;BMP_temperature;BMP_pressure;BME280_temperature;BME280_humidity;BME280_pressure;Samples;Min_cycle;Max_cycle;Signal;HPM_P1;HPM_P2
2023/04/27 00:00:50;;;;;;;10.55;6.30;;;;;;;;;;4858484;29;20056;-77
2023/04/27 00:03:16;;;;;;;11.65;6.72;;;;;;;;;;4847270;29;20049;-78
2023/04/27 00:05:42;;;;;;;11.07;6.70;;;;;;;;;;4859954;29;20113;-78
2023/04/27 00:08:08;;;;;;;11.85;6.30;;;;;;;;;;4858705;29;20029;-78
2023/04/27 00:10:35;;;;;;;15.50;6.50;;;;;;;;;;4859148;29;20276;-78
2023/04/27 00:13:01;;;;;;;11.15;6.47;;;;;;;;;;4842711;29;20357;-77
2023/04/27 00:15:28;;;;;;;11.15;5.70;;;;;;;;;;4848205;29;20456;-77
2023/04/27 00:17:54;;;;;;;9.43;6.15;;;;;;;;;;4852827;29;20033;-77
2023/04/27 00:20:20;;;;;;;13.70;7.25;;;;;;;;;;4857290;29;20072;-77
2023/04/27 00:22:46;;;;;;;11.57;5.88;;;;;;;;;;4841532;29;20054;-76
2023/04/27 00:25:12;;;;;;;8.55;6.10;;;;;;;;;;4857966;29;20191;-77
2023/04/27 00:27:40;;;;;;;11.45;6.28;;;;;;;;;;4853733;29;20463;-76
2023/04/27 00:30:06;;;;;;;18.05;6.57;;;;;;;;;;4854108;29;20368;-77
2023/04/27 00:32:33;;;;;;;9.70;6.55;;;;;;;;;;4843972;29;20411;-76
2023/04/27 00:34:59;;;;;;;10.65;5.88;;;;;;;;;;4850524;29;20154;-76
2023/04/27 00:37:25;;;;;;;13.82;6.78;;;;;;;;;;4854331;29;20045;-77
2023/04/27 00:39:51;;;;;;;10.05;5.70;;;;;;;;;;4840871;29;20044;-77
2023/04/27 00:42:18;;;;;;;8.73;6.00;;;;;;;;;;4860033;29;20036;-77
2023/04/27 00:44:45;;;;;;;9.38;5.70;;;;;;;;;;4869962;29;20033;-77
2023/04/27 00:47:11;;;;;;;13.60;6.07;;;;;;;;;;4862760;29;20041;-77
2023/04/27 00:49:37;;;;;;;9.73;5.70;;;;;;;;;;4857058;29;20072;-77
2023/04/27 00:52:04;;;;;;;9.20;5.65;;;;;;;;;;4852897;29;20394;-76
2023/04/27 00:54:30;;;;;;;8.25;6.13;;;;;;;;;;4854157;29;20034;-76
2023/04/27 00:56:56;;;;;;;9.68;5.78;;;;;;;;;;4857786;29;20053;-76
2023/04/27 00:59:22;;;;;;;10.40;5.80;;;;;;;;;;4840629;29;20030;-76
2023/04/27 01:01:49;;;;;;;12.07;5.80;;;;;;;;;;4839161;29;20096;-76
2023/04/27 01:04:16;;;;;;;12.27;6.43;;;;;;;;;;4852108;29;20037;-78
2023/04/27 01:06:43;;;;;;;9.30;6.47;;;;;;;;;;4855656;29;20038;-77
2023/04/27 01:09:09;;;;;;;10.40;6.35;;;;;;;;;;4847934;29;20040;-78
2023/04/27 01:11:36;;;;;;;10.32;6.68;;;;;;;;;;4834850;29;20038;-78
2023/04/27 01:14:06;;;;;;;9.35;6.03;;;;;;;;;;4826735;29;20551;-77
2023/04/27 01:16:36;;;;;;;10.20;6.22;;;;;;;;;;4844281;29;20052;-77
2023/04/27 01:19:02;;;;;;;12.18;6.65;;;;;;;;;;4842338;29;20042;-77
2023/04/27 01:21:28;;;;;;;11.35;6.43;;;;;;;;;;4855586;29;20041;-76
2023/04/27 01:23:54;;;;;;;11.00;6.60;;;;;;;;;;4852217;29;20522;-76
2023/04/27 01:26:21;;;;;;;13.68;6.20;;;;;;;;;;4856761;29;20033;-76
2023/04/27 01:28:47;;;;;;;14.55;6.40;;;;;;;;;;4857056;29;20046;-76
2023/04/27 01:31:15;;;;;;;13.05;7.13;;;;;;;;;;4857235;29;20037;-77
2023/04/27 01:33:41;;;;;;;12.57;6.45;;;;;;;;;;4856359;29;20105;-76
2023/04/27 01:36:08;;;;;;;9.60;6.72;;;;;;;;;;4852793;29;20037;-77
2023/04/27 01:38:36;;;;;;;10.43;6.65;;;;;;;;;;4823051;29;20050;-77
2023/04/27 01:41:03;;;;;;;13.18;6.97;;;;;;;;;;4821577;29;20047;-76
2023/04/27 01:43:30;;;;;;;11.73;6.55;;;;;;;;;;4824044;29;20110;-76
2023/04/27 01:45:56;;;;;;;12.38;6.90;;;;;;;;;;4820617;29;20059;-76
2023/04/27 01:48:23;;;;;;;12.07;7.10;;;;;;;;;;4818577;29;20046;-76
2023/04/27 01:50:49;;;;;;;10.70;6.55;;;;;;;;;;4817503;29;20034;-77
2023/04/27 01:53:15;;;;;;;20.98;8.25;;;;;;;;;;4820045;29;20434;-78
2023/04/27 01:55:41;;;;;;;12.80;6.15;;;;;;;;;;4812561;29;20125;-77
2023/04/27 01:58:07;;;;;;;11.88;6.28;;;;;;;;;;4819634;29;20046;-77
2023/04/27 02:00:33;;;;;;;10.07;6.05;;;;;;;;;;4820576;29;20075;-77
2023/04/27 02:02:59;;;;;;;21.20;7.60;;;;;;;;;;4832965;29;20038;-77
2023/04/27 02:05:26;;;;;;;13.45;6.40;;;;;;;;;;4835632;29;20041;-77
2023/04/27 02:07:52;;;;;;;9.48;5.88;;;;;;;;;;4816084;29;20038;-78
2023/04/27 02:10:18;;;;;;;8.20;6.25;;;;;;;;;;4821868;29;20039;-77
2023/04/27 02:12:45;;;;;;;11.45;6.22;;;;;;;;;;4814759;29;20039;-77
2023/04/27 02:15:11;;;;;;;15.27;6.80;;;;;;;;;;4820280;29;20042;-77
2023/04/27 02:17:38;;;;;;;9.05;5.88;;;;;;;;;;4824867;29;20400;-77
2023/04/27 02:20:05;;;;;;;12.55;5.78;;;;;;;;;;4816722;29;20249;-78
2023/04/27 02:22:32;;;;;;;9.77;5.47;;;;;;;;;;4821245;29;20405;-77
2023/04/27 02:24:59;;;;;;;10.93;6.13;;;;;;;;;;4818969;29;20042;-76
2023/04/27 02:27:25;;;;;;;12.68;5.45;;;;;;;;;;4820880;29;20045;-76
2023/04/27 02:29:51;;;;;;;10.00;5.63;;;;;;;;;;4811253;29;20076;-76
2023/04/27 02:32:17;;;;;;;9.27;5.40;;;;;;;;;;4829848;29;20549;-77
2023/04/27 02:34:44;;;;;;;9.85;6.10;;;;;;;;;;4817986;29;20035;-77
2023/04/27 02:37:10;;;;;;;21.95;6.30;;;;;;;;;;4820887;29;20507;-77
2023/04/27 02:39:36;;;;;;;9.23;6.63;;;;;;;;;;4853670;29;20061;-77
2023/04/27 02:42:02;;;;;;;7.70;5.57;;;;;;;;;;4840029;29;20531;-77
2023/04/27 02:44:29;;;;;;;12.30;5.53;;;;;;;;;;4845960;29;20068;-77
2023/04/27 02:46:55;;;;;;;12.13;6.25;;;;;;;;;;4864788;29;20117;-77
2023/04/27 02:49:21;;;;;;;8.48;5.80;;;;;;;;;;4858604;29;20041;-76
2023/04/27 02:51:47;;;;;;;10.07;6.13;;;;;;;;;;4857164;29;20029;-77
2023/04/27 02:54:13;;;;;;;11.52;5.93;;;;;;;;;;4854884;29;20034;-77
2023/04/27 02:56:39;;;;;;;10.55;6.80;;;;;;;;;;4841789;29;20053;-77
2023/04/27 02:59:05;;;;;;;9.15;6.00;;;;;;;;;;4854029;29;20073;-77
2023/04/27 03:01:31;;;;;;;7.60;5.32;;;;;;;;;;4856580;29;20037;-77
2023/04/27 03:03:57;;;;;;;12.77;6.30;;;;;;;;;;4856350;29;20041;-77
2023/04/27 03:06:23;;;;;;;12.00;6.18;;;;;;;;;;4849641;29;20068;-77
2023/04/27 03:08:49;;;;;;;8.27;5.70;;;;;;;;;;4845157;29;20122;-77
2023/04/27 03:11:15;;;;;;;12.65;6.13;;;;;;;;;;4856911;29;20030;-77
2023/04/27 03:13:41;;;;;;;8.48;6.63;;;;;;;;;;4842938;29;20061;-76
2023/04/27 03:16:09;;;;;;;12.30;6.43;;;;;;;;;;4851860;29;20267;-76
2023/04/27 03:18:36;;;;;;;12.48;6.00;;;;;;;;;;4858030;29;20029;-76
2023/04/27 03:21:08;;;;;;;9.60;6.72;;;;;;;;;;4855950;29;20117;-76
2023/04/27 03:23:36;;;;;;;10.10;6.25;;;;;;;;;;4854327;29;20034;-77
2023/04/27 03:26:07;;;;;;;11.50;6.20;;;;;;;;;;4855500;29;20033;-77
2023/04/27 03:28:33;;;;;;;8.80;6.75;;;;;;;;;;4839022;29;20148;-77
2023/04/27 03:30:59;;;;;;;12.70;6.38;;;;;;;;;;4863065;29;20098;-77
2023/04/27 03:33:28;;;;;;;11.55;6.55;;;;;;;;;;4860523;29;20092;-77
2023/04/27 03:35:55;;;;;;;10.30;6.53;;;;;;;;;;4853846;29;20099;-76
2023/04/27 03:38:21;;;;;;;11.30;5.68;;;;;;;;;;4855613;29;20054;-77
2023/04/27 03:40:47;;;;;;;10.57;6.18;;;;;;;;;;4858406;29;20033;-77
2023/04/27 03:43:14;;;;;;;10.90;6.43;;;;;;;;;;4857207;29;20090;-76
2023/04/27 03:45:40;;;;;;;11.52;6.47;;;;;;;;;;4848824;29;20041;-76
2023/04/27 03:48:06;;;;;;;10.82;6.20;;;;;;;;;;4859758;29;20037;-77
2023/04/27 03:50:32;;;;;;;11.35;6.40;;;;;;;;;;4847744;29;20036;-76
2023/04/27 03:52:58;;;;;;;9.68;6.28;;;;;;;;;;4841884;29;20427;-76
2023/04/27 03:55:24;;;;;;;10.80;6.32;;;;;;;;;;4856534;29;20439;-76
2023/04/27 03:57:51;;;;;;;11.85;6.50;;;;;;;;;;4848824;29;20436;-77
2023/04/27 04:00:17;;;;;;;8.10;6.68;;;;;;;;;;4860796;29;20050;-77
2023/04/27 04:02:43;;;;;;;9.57;6.55;;;;;;;;;;4845749;29;20030;-77
2023/04/27 04:05:09;;;;;;;15.27;7.43;;;;;;;;;;4858800;29;20116;-77
2023/04/27 04:07:36;;;;;;;7.68;5.72;;;;;;;;;;4854542;29;20444;-78
2023/04/27 04:10:02;;;;;;;9.52;6.40;;;;;;;;;;4853340;29;20125;-77
2023/04/27 04:12:28;;;;;;;11.10;5.95;;;;;;;;;;4853359;29;20033;-77
2023/04/27 04:14:54;;;;;;;14.20;7.10;;;;;;;;;;4849866;29;20045;-76
2023/04/27 04:17:20;;;;;;;9.02;6.22;;;;;;;;;;4856419;29;20037;-76
2023/04/27 04:19:46;;;;;;;8.18;5.82;;;;;;;;;;4856146;29;20484;-78
2023/04/27 04:22:13;;;;;;;9.45;6.40;;;;;;;;;;4859337;29;20026;-76
2023/04/27 04:24:39;;;;;;;7.80;5.88;;;;;;;;;;4858451;29;20423;-76
2023/04/27 04:27:05;;;;;;;13.40;6.75;;;;;;;;;;4838783;29;20392;-77
2023/04/27 04:29:31;;;;;;;13.38;7.40;;;;;;;;;;4830893;29;20093;-76
2023/04/27 04:31:58;;;;;;;10.35;6.55;;;;;;;;;;4843722;29;20044;-76
2023/04/27 04:34:24;;;;;;;11.13;6.22;;;;;;;;;;4857329;29;20132;-77
2023/04/27 04:36:50;;;;;;;9.30;6.40;;;;;;;;;;4859746;29;20048;-76
2023/04/27 04:39:19;;;;;;;13.27;7.60;;;;;;;;;;4855870;29;20046;-77
2023/04/27 04:41:45;;;;;;;10.98;6.75;;;;;;;;;;4856304;29;20073;-77
2023/04/27 04:44:11;;;;;;;8.02;5.90;;;;;;;;;;4825272;29;20514;-76
2023/04/27 04:46:37;;;;;;;10.13;6.47;;;;;;;;;;4864218;29;20112;-76
2023/04/27 04:49:03;;;;;;;11.52;6.30;;;;;;;;;;4851584;29;20030;-77
2023/04/27 04:51:29;;;;;;;9.00;6.63;;;;;;;;;;4857022;29;20061;-76
2023/04/27 04:53:56;;;;;;;14.50;6.43;;;;;;;;;;4838363;29;20518;-76
2023/04/27 04:56:22;;;;;;;11.38;6.35;;;;;;;;;;4856677;29;20045;-77
2023/04/27 04:58:48;;;;;;;7.75;6.05;;;;;;;;;;4854103;29;20026;-77
2023/04/27 05:01:14;;;;;;;11.30;6.75;;;;;;;;;;4853698;29;20029;-76
2023/04/27 05:03:41;;;;;;;11.38;6.57;;;;;;;;;;4858649;29;20387;-76
2023/04/27 05:06:07;;;;;;;13.48;6.35;;;;;;;;;;4838443;29;20491;-76
2023/04/27 05:08:36;;;;;;;10.80;6.65;;;;;;;;;;4853357;29;20054;-77
2023/04/27 05:11:02;;;;;;;14.52;8.68;;;;;;;;;;4841310;29;20030;-77
2023/04/27 05:13:28;;;;;;;12.38;6.55;;;;;;;;;;4857839;29;20032;-77
2023/04/27 05:15:54;;;;;;;9.45;6.78;;;;;;;;;;4843634;29;20495;-72
2023/04/27 05:18:20;;;;;;;8.88;5.93;;;;;;;;;;4853434;29;20062;-80
2023/04/27 05:20:46;;;;;;;9.85;6.68;;;;;;;;;;4845451;29;20383;-80
2023/04/27 05:23:12;;;;;;;12.23;6.15;;;;;;;;;;4856625;29;20181;-80
2023/04/27 05:25:41;;;;;;;13.02;6.45;;;;;;;;;;4848048;29;20037;-77
2023/04/27 05:28:08;;;;;;;17.17;10.60;;;;;;;;;;4850620;29;20025;-78
2023/04/27 05:30:34;;;;;;;10.82;6.63;;;;;;;;;;4847884;29;20025;-78
2023/04/27 05:33:01;;;;;;;14.23;6.78;;;;;;;;;;4856387;29;20086;-78
2023/04/27 05:35:27;;;;;;;17.45;7.78;;;;;;;;;;4840646;29;20120;-80
2023/04/27 05:37:53;;;;;;;9.85;6.50;;;;;;;;;;4849462;29;20418;-77
2023/04/27 05:40:19;;;;;;;10.35;6.35;;;;;;;;;;4854145;29;20033;-78
2023/04/27 05:42:46;;;;;;;8.68;6.28;;;;;;;;;;4854439;29;20037;-81
2023/04/27 05:45:12;;;;;;;10.38;6.28;;;;;;;;;;4855184;29;20476;-82
2023/04/27 05:47:38;;;;;;;9.43;5.75;;;;;;;;;;4858820;29;20048;-81
2023/04/27 05:50:05;;;;;;;10.55;5.88;;;;;;;;;;4851512;29;20041;-82
2023/04/27 05:52:31;;;;;;;14.20;7.28;;;;;;;;;;4857469;29;20394;-80
2023/04/27 05:54:57;;;;;;;16.75;6.13;;;;;;;;;;4851393;29;20391;-79
2023/04/27 05:57:24;;;;;;;8.68;4.45;;;;;;;;;;4839432;29;20147;-82
2023/04/27 05:59:50;;;;;;;8.27;4.82;;;;;;;;;;4853023;29;20038;-84
2023/04/27 06:02:16;;;;;;;12.48;4.35;;;;;;;;;;4842872;29;20566;-81
2023/04/27 06:04:43;;;;;;;11.30;4.50;;;;;;;;;;4845047;29;20086;-82
2023/04/27 06:07:10;;;;;;;8.70;5.35;;;;;;;;;;4849928;29;20396;-80
2023/04/27 06:09:36;;;;;;;8.70;4.50;;;;;;;;;;4850754;29;20049;-77
2023/04/27 06:12:03;;;;;;;10.18;5.60;;;;;;;;;;4851089;29;20029;-79
2023/04/27 06:14:29;;;;;;;14.32;5.93;;;;;;;;;;4836474;29;20041;-81
2023/04/27 06:16:56;;;;;;;5.60;4.03;;;;;;;;;;4854098;29;20030;-78
2023/04/27 06:19:22;;;;;;;5.45;4.43;;;;;;;;;;4860209;29;20440;-79
2023/04/27 06:21:51;;;;;;;12.35;5.50;;;;;;;;;;4858005;29;20061;-80
2023/04/27 06:24:17;;;;;;;7.22;4.53;;;;;;;;;;4854466;29;20497;-77
2023/04/27 06:26:43;;;;;;;6.43;4.10;;;;;;;;;;4842352;29;20097;-77
2023/04/27 06:29:09;;;;;;;13.93;4.93;;;;;;;;;;4843935;29;20451;-82
2023/04/27 06:31:35;;;;;;;5.05;3.88;;;;;;;;;;4865522;29;20037;-80
2023/04/27 06:34:01;;;;;;;8.05;4.60;;;;;;;;;;4858213;29;20476;-82
2023/04/27 06:36:27;;;;;;;8.35;4.13;;;;;;;;;;4848102;29;20044;-81
2023/04/27 06:38:57;;;;;;;8.93;4.15;;;;;;;;;;4859369;29;20057;-81
2023/04/27 06:41:25;;;;;;;8.98;4.60;;;;;;;;;;4851316;29;20050;-79
2023/04/27 06:43:51;;;;;;;9.07;5.95;;;;;;;;;;4853695;29;20040;-79
2023/04/27 06:46:17;;;;;;;8.35;4.68;;;;;;;;;;4865333;29;20547;-78
2023/04/27 06:48:43;;;;;;;10.05;5.10;;;;;;;;;;4858180;29;20124;-78
2023/04/27 06:51:09;;;;;;;6.78;4.22;;;;;;;;;;4865254;29;20025;-77
2023/04/27 06:53:36;;;;;;;9.02;3.90;;;;;;;;;;4856398;29;20033;-77
2023/04/27 06:56:02;;;;;;;4.97;2.92;;;;;;;;;;4841389;29;20042;-76
2023/04/27 06:58:28;;;;;;;5.03;3.10;;;;;;;;;;4860044;29;20149;-78
2023/04/27 07:00:54;;;;;;;5.07;2.58;;;;;;;;;;4857628;29;20037;-77
2023/04/27 07:03:21;;;;;;;5.10;2.58;;;;;;;;;;4844861;29;20547;-77
2023/04/27 07:05:47;;;;;;;7.35;3.78;;;;;;;;;;4856750;29;20379;-79
2023/04/27 07:08:16;;;;;;;5.25;2.63;;;;;;;;;;4839218;29;20459;-77
2023/04/27 07:10:42;;;;;;;6.40;3.25;;;;;;;;;;4833565;29;20042;-78
2023/04/27 07:13:08;;;;;;;4.05;2.05;;;;;;;;;;4850091;29;20042;-84
2023/04/27 07:15:34;;;;;;;7.43;2.40;;;;;;;;;;4857795;29;20034;-82
2023/04/27 07:18:00;;;;;;;4.47;2.05;;;;;;;;;;4855577;29;20121;-81
2023/04/27 07:20:27;;;;;;;4.32;1.75;;;;;;;;;;4858701;29;20479;-80
2023/04/27 07:22:53;;;;;;;29.50;16.88;;;;;;;;;;4859529;29;20054;-79
2023/04/27 07:25:19;;;;;;;4.72;1.70;;;;;;;;;;4851736;29;20492;-78
2023/04/27 07:27:45;;;;;;;8.35;2.28;;;;;;;;;;4841236;29;20045;-80
2023/04/27 07:30:13;;;;;;;4.85;1.50;;;;;;;;;;4850078;29;20065;-77
2023/04/27 07:32:42;;;;;;;4.93;1.63;;;;;;;;;;4847688;29;20044;-77
2023/04/27 07:35:08;;;;;;;2.88;1.38;;;;;;;;;;4854123;29;20499;-77
2023/04/27 07:37:37;;;;;;;3.05;1.75;;;;;;;;;;4854333;29;20395;-77
2023/04/27 07:40:15;;;;;;;4.03;1.70;;;;;;;;;;4852326;29;20065;-76
2023/04/27 07:42:41;;;;;;;5.30;2.22;;;;;;;;;;4857132;29;20109;-77
2023/04/27 07:45:08;;;;;;;9.13;1.58;;;;;;;;;;4852925;29;20036;-77
2023/04/27 07:47:34;;;;;;;2.47;1.48;;;;;;;;;;4860338;29;20113;-76
2023/04/27 07:50:00;;;;;;;3.28;1.73;;;;;;;;;;4849536;29;20038;-74
2023/04/27 07:52:26;;;;;;;2.80;1.50;;;;;;;;;;4858354;29;20049;-75
2023/04/27 07:54:52;;;;;;;2.58;1.10;;;;;;;;;;4851278;29;20044;-76
2023/04/27 07:57:18;;;;;;;4.45;1.38;;;;;;;;;;4854174;29;20057;-77
2023/04/27 07:59:45;;;;;;;3.22;1.40;;;;;;;;;;4854771;29;20048;-78
2023/04/27 08:02:11;;;;;;;3.22;1.38;;;;;;;;;;4856399;29;20545;-78
2023/04/27 08:04:37;;;;;;;3.88;1.63;;;;;;;;;;4860842;29;20519;-78
2023/04/27 08:07:03;;;;;;;7.10;1.48;;;;;;;;;;4842050;29;20471;-79
2023/04/27 08:09:30;;;;;;;5.97;2.72;;;;;;;;;;4854730;29;20478;-78
2023/04/27 08:11:57;;;;;;;2.85;1.33;;;;;;;;;;4849801;29;20065;-78
2023/04/27 08:14:23;;;;;;;3.03;1.35;;;;;;;;;;4866755;29;20041;-78
2023/04/27 08:16:50;;;;;;;5.28;1.35;;;;;;;;;;4850884;29;20385;-78
2023/04/27 08:19:17;;;;;;;3.50;1.45;;;;;;;;;;4859114;29;20042;-78
2023/04/27 08:21:43;;;;;;;2.35;1.23;;;;;;;;;;4857479;29;20037;-78
2023/04/27 08:24:09;;;;;;;3.42;1.70;;;;;;;;;;4858276;29;20041;-77
2023/04/27 08:26:35;;;;;;;3.78;1.40;;;;;;;;;;4845317;29;20558;-78
2023/04/27 08:29:02;;;;;;;2.05;1.38;;;;;;;;;;4857058;29;20137;-78
2023/04/27 08:31:28;;;;;;;5.70;1.80;;;;;;;;;;4855498;29;20040;-77
2023/04/27 08:33:54;;;;;;;2.67;1.40;;;;;;;;;;4855549;29;20034;-78
2023/04/27 08:36:25;;;;;;;1.92;1.73;;;;;;;;;;4855047;29;20100;-78
2023/04/27 08:38:52;;;;;;;3.40;1.80;;;;;;;;;;4859738;29;20487;-78
2023/04/27 08:41:20;;;;;;;6.30;2.40;;;;;;;;;;4850024;29;20044;-78
2023/04/27 08:43:48;;;;;;;4.80;1.92;;;;;;;;;;4841549;29;20467;-78
2023/04/27 08:46:19;;;;;;;3.72;2.20;;;;;;;;;;4852397;29;20042;-78
2023/04/27 08:48:45;;;;;;;5.82;2.30;;;;;;;;;;4853865;29;20086;-79
2023/04/27 08:51:14;;;;;;;2.97;1.90;;;;;;;;;;4842856;29;20049;-79
2023/04/27 08:53:45;;;;;;;4.82;2.20;;;;;;;;;;4834030;29;20022;-79
2023/04/27 08:56:11;;;;;;;8.77;2.35;;;;;;;;;;4850076;29;20086;-79
2023/04/27 08:58:39;;;;;;;8.32;2.28;;;;;;;;;;4848673;29;20496;-79
2023/04/27 09:01:06;;;;;;;3.30;2.20;;;;;;;;;;4863424;29;20127;-80
2023/04/27 09:03:33;;;;;;;4.88;2.60;;;;;;;;;;4855728;29;20471;-80
2023/04/27 09:05:59;;;;;;;7.22;3.15;;;;;;;;;;4848049;29;20041;-79
2023/04/27 09:08:28;;;;;;;5.38;3.20;;;;;;;;;;4844156;29;20654;-79
2023/04/27 09:10:55;;;;;;;7.78;4.30;;;;;;;;;;4846107;29;20033;-79
2023/04/27 09:13:21;;;;;;;6.13;3.30;;;;;;;;;;4859277;29;20029;-79
2023/04/27 09:15:49;;;;;;;6.38;3.30;;;;;;;;;;4859662;29;20063;-79
2023/04/27 09:18:22;;;;;;;6.53;2.90;;;;;;;;;;4857737;29;20029;-79
2023/04/27 09:20:52;;;;;;;9.30;3.85;;;;;;;;;;4840507;29;20037;-78
2023/04/27 09:23:31;;;;;;;6.90;3.35;;;;;;;;;;4858475;29;20082;-78
2023/04/27 09:25:58;;;;;;;6.43;3.20;;;;;;;;;;4857996;29;20070;-79
2023/04/27 09:28:33;;;;;;;7.07;3.15;;;;;;;;;;4859127;29;20025;-78
2023/04/27 09:30:59;;;;;;;7.38;3.38;;;;;;;;;;4861388;29;20033;-79
2023/04/27 09:33:26;;;;;;;10.63;4.10;;;;;;;;;;4868761;29;20108;-78
2023/04/27 09:35:53;;;;;;;11.43;5.85;;;;;;;;;;4857781;29;20112;-79
2023/04/27 09:38:19;;;;;;;12.90;6.00;;;;;;;;;;4836487;29;20041;-78
2023/04/27 09:40:46;;;;;;;18.00;8.32;;;;;;;;;;4857605;29;20453;-83
2023/04/27 09:43:12;;;;;;;14.57;7.05;;;;;;;;;;4842137;29;20420;-78
2023/04/27 09:45:38;;;;;;;15.15;5.78;;;;;;;;;;4853403;29;20038;-77
2023/04/27 09:48:05;;;;;;;8.93;4.43;;;;;;;;;;4847267;29;20045;-76
2023/04/27 09:50:35;;;;;;;12.13;4.93;;;;;;;;;;4844550;29;20041;-76
2023/04/27 09:53:02;;;;;;;12.60;5.50;;;;;;;;;;4848578;29;20032;-78
2023/04/27 09:55:32;;;;;;;11.23;5.63;;;;;;;;;;4837376;29;20051;-79
2023/04/27 09:58:16;;;;;;;11.40;4.65;;;;;;;;;;4851292;29;20082;-78
2023/04/27 10:00:52;;;;;;;13.18;5.88;;;;;;;;;;4855666;29;20037;-76
2023/04/27 10:03:42;;;;;;;19.35;7.18;;;;;;;;;;4848864;29;20029;-78
2023/04/27 10:06:27;;;;;;;61.85;34.58;;;;;;;;;;4850906;29;20060;-78
2023/04/27 10:08:54;;;;;;;30.67;12.25;;;;;;;;;;4857583;29;20065;-77
2023/04/27 10:11:21;;;;;;;25.98;12.15;;;;;;;;;;4849624;29;20060;-75
2023/04/27 10:13:54;;;;;;;20.30;9.20;;;;;;;;;;4841887;29;20042;-81
2023/04/27 10:16:21;;;;;;;12.95;6.32;;;;;;;;;;4854027;29;20042;-81
2023/04/27 10:18:54;;;;;;;14.25;6.90;;;;;;;;;;4839559;29;20104;-81
2023/04/27 10:21:20;;;;;;;13.27;5.13;;;;;;;;;;4854870;29;20037;-80
2023/04/27 10:23:47;;;;;;;14.50;5.82;;;;;;;;;;4857965;29;20491;-80
2023/04/27 10:26:21;;;;;;;11.57;4.43;;;;;;;;;;4836730;29;20113;-80
2023/04/27 10:28:55;;;;;;;10.95;4.20;;;;;;;;;;4832354;29;20037;-81
2023/04/27 10:31:27;;;;;;;10.48;4.60;;;;;;;;;;4857880;29;20500;-81
2023/04/27 10:33:53;;;;;;;;;;;;;;;;;;4856933;29;20377;-81
2023/04/27 10:36:19;;;;;;;8.65;4.45;;;;;;;;;;4842043;29;19959;-81
2023/04/27 10:38:45;;;;;;;6.85;3.60;;;;;;;;;;4844231;29;20037;-76
2023/04/27 10:41:15;;;;;;;7.68;3.17;;;;;;;;;;4850320;29;20446;-76
2023/04/27 10:43:41;;;;;;;9.40;3.55;;;;;;;;;;4841246;29;20483;-76
2023/04/27 10:46:14;;;;;;;8.75;3.70;;;;;;;;;;4847663;29;20496;-79
2023/04/27 10:48:41;;;;;;;7.68;3.00;;;;;;;;;;4858592;29;20128;-77
2023/04/27 10:51:07;;;;;;;8.90;3.10;;;;;;;;;;4867050;29;20029;-76
2023/04/27 10:53:34;;;;;;;7.20;2.60;;;;;;;;;;4852710;29;20065;-78
2023/04/27 10:56:01;;;;;;;8.38;3.72;;;;;;;;;;4850367;29;20037;-77
2023/04/27 10:58:27;;;;;;;5.82;2.78;;;;;;;;;;4834499;29;20040;-76
2023/04/27 11:00:53;;;;;;;6.97;3.22;;;;;;;;;;4852451;29;20121;-78
2023/04/27 11:03:21;;;;;;;8.88;3.03;;;;;;;;;;4849392;29;20026;-76
2023/04/27 11:05:48;;;;;;;5.78;3.30;;;;;;;;;;4834695;29;20124;-76
2023/04/27 11:08:16;;;;;;;8.35;3.40;;;;;;;;;;4848708;29;20056;-77
2023/04/27 11:10:49;;;;;;;3.90;2.60;;;;;;;;;;4856650;29;20029;-77
2023/04/27 11:13:19;;;;;;;20.00;14.23;;;;;;;;;;4851603;29;20029;-78
2023/04/27 11:15:59;;;;;;;9.27;4.00;;;;;;;;;;4850687;29;20037;-78
2023/04/27 11:18:26;;;;;;;6.05;2.72;;;;;;;;;;4852833;29;20198;-77
2023/04/27 11:20:53;;;;;;;8.93;2.85;;;;;;;;;;4852729;29;20021;-75
2023/04/27 11:23:27;;;;;;;6.90;2.88;;;;;;;;;;4852381;29;20787;-75
2023/04/27 11:25:54;;;;;;;3.85;2.55;;;;;;;;;;4855383;29;20065;-74
2023/04/27 11:28:20;;;;;;;5.10;3.30;;;;;;;;;;4854583;29;20459;-75
2023/04/27 11:30:48;;;;;;;8.55;3.38;;;;;;;;;;4852905;29;20063;-75
2023/04/27 11:33:14;;;;;;;7.47;4.43;;;;;;;;;;4859202;29;20026;-76
2023/04/27 11:35:41;;;;;;;9.68;4.00;;;;;;;;;;4850276;29;20045;-75
2023/04/27 11:38:07;;;;;;;7.78;4.25;;;;;;;;;;4842353;29;20411;-75
2023/04/27 11:40:38;;;;;;;30.80;16.63;;;;;;;;;;4831481;29;20508;-78
2023/04/27 11:43:04;;;;;;;19.85;14.30;;;;;;;;;;4815104;29;20046;-78
2023/04/27 11:45:30;;;;;;;8.90;4.03;;;;;;;;;;4840355;29;20120;-77
2023/04/27 11:48:00;;;;;;;8.40;3.72;;;;;;;;;;4827427;29;20046;-77
2023/04/27 11:50:27;;;;;;;5.93;3.20;;;;;;;;;;4821270;29;20030;-77
2023/04/27 11:52:53;;;;;;;7.60;3.05;;;;;;;;;;4836646;29;20571;-77
2023/04/27 11:55:24;;;;;;;8.00;3.13;;;;;;;;;;4819143;29;20113;-77
2023/04/27 11:57:55;;;;;;;6.32;2.80;;;;;;;;;;4824435;29;20049;-77
2023/04/27 12:00:21;;;;;;;6.28;3.72;;;;;;;;;;4833545;29;20541;-78
2023/04/27 12:02:47;;;;;;;6.85;3.67;;;;;;;;;;4827096;29;20408;-77
2023/04/27 12:05:14;;;;;;;5.15;3.10;;;;;;;;;;4820565;29;20539;-77
2023/04/27 12:07:41;;;;;;;8.07;3.30;;;;;;;;;;4818911;29;20780;-77
2023/04/27 12:10:07;;;;;;;8.68;3.80;;;;;;;;;;4819639;29;20349;-77
2023/04/27 12:12:33;;;;;;;6.15;3.30;;;;;;;;;;4822025;29;20087;-77
2023/04/27 12:14:59;;;;;;;4.65;2.55;;;;;;;;;;4823711;29;20038;-77
2023/04/27 12:17:26;;;;;;;7.95;3.17;;;;;;;;;;4831776;29;20087;-77
2023/04/27 12:19:52;;;;;;;9.75;3.33;;;;;;;;;;4821893;29;20384;-77
2023/04/27 12:22:18;;;;;;;6.10;3.17;;;;;;;;;;4817027;29;20624;-77
2023/04/27 12:24:45;;;;;;;7.03;3.33;;;;;;;;;;4822223;29;20050;-77
2023/04/27 12:27:11;;;;;;;5.95;3.05;;;;;;;;;;4820440;29;20484;-77
2023/04/27 12:29:37;;;;;;;6.75;3.10;;;;;;;;;;4832882;29;20270;-77
2023/04/27 12:32:04;;;;;;;4.93;3.10;;;;;;;;;;4827878;29;20026;-77
2023/04/27 12:34:30;;;;;;;6.80;3.22;;;;;;;;;;4822588;29;20038;-76
2023/04/27 12:36:56;;;;;;;6.18;3.00;;;;;;;;;;4828840;29;20042;-76
2023/04/27 12:39:26;;;;;;;9.95;3.20;;;;;;;;;;4811338;29;20508;-77
2023/04/27 12:41:54;;;;;;;6.72;3.13;;;;;;;;;;4841598;29;20040;-76
2023/04/27 12:44:20;;;;;;;8.00;3.35;;;;;;;;;;4849308;29;20494;-77
2023/04/27 12:46:47;;;;;;;8.00;3.53;;;;;;;;;;4858151;29;20045;-77
2023/04/27 12:49:13;;;;;;;8.07;2.75;;;;;;;;;;4857062;29;20388;-77
2023/04/27 12:51:40;;;;;;;5.60;2.90;;;;;;;;;;4858608;29;20025;-76
2023/04/27 12:54:06;;;;;;;6.90;3.42;;;;;;;;;;4839185;29;20482;-77
2023/04/27 12:56:33;;;;;;;6.40;2.92;;;;;;;;;;4856126;29;20121;-77
2023/04/27 12:58:59;;;;;;;6.20;2.88;;;;;;;;;;4859177;29;20074;-77
2023/04/27 13:01:30;;;;;;;6.28;3.00;;;;;;;;;;4851507;29;20491;-77
2023/04/27 13:03:58;;;;;;;3.97;2.90;;;;;;;;;;4849461;29;20033;-77
2023/04/27 13:06:25;;;;;;;5.88;2.60;;;;;;;;;;4858463;29;20033;-77
2023/04/27 13:08:51;;;;;;;7.70;3.10;;;;;;;;;;4851794;29;20112;-77
2023/04/27 13:11:17;;;;;;;7.93;2.67;;;;;;;;;;4851016;29;20045;-77
2023/04/27 13:13:44;;;;;;;5.38;2.58;;;;;;;;;;4846781;29;20489;-77
2023/04/27 13:16:11;;;;;;;5.95;2.97;;;;;;;;;;4866484;29;20036;-77
2023/04/27 13:18:37;;;;;;;7.68;3.22;;;;;;;;;;4849634;29;20029;-77
2023/04/27 13:21:04;;;;;;;13.95;3.42;;;;;;;;;;4859034;29;20556;-77
2023/04/27 13:23:30;;;;;;;5.55;3.03;;;;;;;;;;4843751;29;20105;-76
2023/04/27 13:25:56;;;;;;;4.72;2.65;;;;;;;;;;4859097;29;20037;-76
2023/04/27 13:28:22;;;;;;;6.03;2.88;;;;;;;;;;4849237;29;20049;-76
2023/04/27 13:30:48;;;;;;;5.72;3.28;;;;;;;;;;4859439;29;20495;-76
2023/04/27 13:33:14;;;;;;;5.18;2.80;;;;;;;;;;4858668;29;20029;-77
2023/04/27 13:35:41;;;;;;;9.57;3.58;;;;;;;;;;4852805;29;20502;-76
2023/04/27 13:38:07;;;;;;;7.78;3.10;;;;;;;;;;4838551;29;20480;-76
2023/04/27 13:40:33;;;;;;;8.63;3.00;;;;;;;;;;4856634;29;20042;-76
2023/04/27 13:42:59;;;;;;;5.70;3.00;;;;;;;;;;4851265;29;20073;-77
2023/04/27 13:45:26;;;;;;;5.90;3.25;;;;;;;;;;4861091;29;20086;-76
2023/04/27 13:47:53;;;;;;;6.53;2.75;;;;;;;;;;4850070;29;20388;-77
2023/04/27 13:50:19;;;;;;;5.82;2.80;;;;;;;;;;4855520;29;20033;-76
2023/04/27 13:52:46;;;;;;;6.00;2.40;;;;;;;;;;4856884;29;20550;-77
2023/04/27 13:55:12;;;;;;;6.60;2.72;;;;;;;;;;4856776;29;20041;-77
2023/04/27 13:57:38;;;;;;;4.53;2.42;;;;;;;;;;4837188;29;20068;-77
2023/04/27 14:00:06;;;;;;;3.70;2.88;;;;;;;;;;4835736;29;20037;-78
2023/04/27 14:02:33;;;;;;;6.53;2.75;;;;;;;;;;4846194;29;20506;-81
2023/04/27 14:04:59;;;;;;;8.68;2.63;;;;;;;;;;4846859;29;20029;-82
2023/04/27 14:07:25;;;;;;;3.97;2.47;;;;;;;;;;4855161;29;20129;-80
2023/04/27 14:09:51;;;;;;;8.98;2.83;;;;;;;;;;4858682;29;20038;-82
2023/04/27 14:12:18;;;;;;;7.63;2.58;;;;;;;;;;4841676;29;21652;-81
2023/04/27 14:14:44;;;;;;;9.10;2.83;;;;;;;;;;4851512;29;20066;-81
2023/04/27 14:17:10;;;;;;;6.97;2.67;;;;;;;;;;4855936;29;20491;-80
2023/04/27 14:19:39;;;;;;;7.13;2.50;;;;;;;;;;4847259;29;20041;-79
2023/04/27 14:22:07;;;;;;;8.40;2.72;;;;;;;;;;4854951;29;20037;-78
2023/04/27 14:24:33;;;;;;;8.85;2.70;;;;;;;;;;4857360;29;20383;-79
2023/04/27 14:26:59;;;;;;;5.38;2.75;;;;;;;;;;4836454;29;20379;-78
2023/04/27 14:29:25;;;;;;;7.38;2.78;;;;;;;;;;4843610;29;20070;-79
2023/04/27 14:31:52;;;;;;;4.57;2.67;;;;;;;;;;4864460;29;20065;-80
2023/04/27 14:34:18;;;;;;;5.53;2.55;;;;;;;;;;4856409;29;20041;-80
2023/04/27 14:36:44;;;;;;;7.30;3.17;;;;;;;;;;4856815;29;20033;-80